Dnipropetrovs'k, Ukraine
Current Conditions -  °F | °C
As of 1:00 PM on Monday 26 Jan 2015 (Local Time) from UKDD Reporting Station
Overcast Overcast  
Wind Chill: 28°   Ceiling: 600
Heat Index: 34°   Visibility: 6mi
Dew Point: 32°   Wind: 7mph
Humidity: 93%   Direction: 120°ESE
Pressure: 30.15"   Gusts: NA
Location:  48.34°N, 34.91°E
Report Text: UKDD 261000Z 12003MPS 100V160 9999 OVC006 01/M00 Q1021 08210356 NOSIG
Loading
Personal Weather Stations






























Interactive Weather Map New forecast layout! Learn more

10-Day Weather Forecast

Advertisements
Track Severe Weather on mobile